sensor_id;sensor_type;location;lat;lon;timestamp;P1;durP1;ratioP1;P2;durP2;ratioP2
2544;SDS011;36212;48.838;9.142;2023-12-14T00:00:55;12.60;;;12.10;;
2544;SDS011;36212;48.838;9.142;2023-12-14T00:03:27;11.45;;;10.85;;
2544;SDS011;36212;48.838;9.142;2023-12-14T00:05:59;12.23;;;11.82;;
2544;SDS011;36212;48.838;9.142;2023-12-14T00:08:32;12.68;;;12.07;;
2544;SDS011;36212;48.838;9.142;2023-12-14T00:11:05;12.52;;;11.93;;
2544;SDS011;36212;48.838;9.142;2023-12-14T00:13:39;11.13;;;10.63;;
2544;SDS011;36212;48.838;9.142;2023-12-14T00:16:12;11.90;;;11.40;;
2544;SDS011;36212;48.838;9.142;2023-12-14T00:18:44;12.50;;;11.88;;
2544;SDS011;36212;48.838;9.142;2023-12-14T00:21:16;13.80;;;13.20;;
2544;SDS011;36212;48.838;9.142;2023-12-14T00:23:48;12.02;;;11.52;;
2544;SDS011;36212;48.838;9.142;2023-12-14T00:26:21;13.32;;;12.73;;
2544;SDS011;36212;48.838;9.142;2023-12-14T00:28:53;11.65;;;11.15;;
2544;SDS011;36212;48.838;9.142;2023-12-14T00:31:32;11.68;;;10.85;;
2544;SDS011;36212;48.838;9.142;2023-12-14T00:34:05;11.98;;;11.38;;
2544;SDS011;36212;48.838;9.142;2023-12-14T00:36:38;11.30;;;10.77;;
2544;SDS011;36212;48.838;9.142;2023-12-14T00:39:10;13.10;;;12.50;;
2544;SDS011;36212;48.838;9.142;2023-12-14T00:41:43;12.93;;;12.20;;
2544;SDS011;36212;48.838;9.142;2023-12-14T00:44:15;12.93;;;12.30;;
2544;SDS011;36212;48.838;9.142;2023-12-14T00:46:47;12.35;;;11.85;;
2544;SDS011;36212;48.838;9.142;2023-12-14T00:49:20;12.43;;;11.80;;
2544;SDS011;36212;48.838;9.142;2023-12-14T00:51:52;11.57;;;10.93;;
2544;SDS011;36212;48.838;9.142;2023-12-14T00:54:24;12.32;;;11.77;;
2544;SDS011;36212;48.838;9.142;2023-12-14T00:56:56;11.75;;;11.15;;
2544;SDS011;36212;48.838;9.142;2023-12-14T00:59:29;10.98;;;10.43;;
2544;SDS011;36212;48.838;9.142;2023-12-14T01:02:01;11.45;;;10.95;;
2544;SDS011;36212;48.838;9.142;2023-12-14T01:04:33;10.95;;;10.30;;
2544;SDS011;36212;48.838;9.142;2023-12-14T01:07:06;11.90;;;11.30;;
2544;SDS011;36212;48.838;9.142;2023-12-14T01:09:38;11.30;;;10.80;;
2544;SDS011;36212;48.838;9.142;2023-12-14T01:12:10;9.95;;;9.65;;
2544;SDS011;36212;48.838;9.142;2023-12-14T01:14:43;9.65;;;9.07;;
2544;SDS011;36212;48.838;9.142;2023-12-14T01:17:15;8.95;;;8.65;;
2544;SDS011;36212;48.838;9.142;2023-12-14T01:19:47;9.60;;;9.20;;
2544;SDS011;36212;48.838;9.142;2023-12-14T01:22:19;9.13;;;8.73;;
2544;SDS011;36212;48.838;9.142;2023-12-14T01:24:52;9.45;;;9.05;;
2544;SDS011;36212;48.838;9.142;2023-12-14T01:27:24;10.07;;;9.38;;
2544;SDS011;36212;48.838;9.142;2023-12-14T01:29:57;9.70;;;9.15;;
2544;SDS011;36212;48.838;9.142;2023-12-14T01:32:29;8.43;;;8.13;;
2544;SDS011;36212;48.838;9.142;2023-12-14T01:35:01;8.90;;;8.60;;
2544;SDS011;36212;48.838;9.142;2023-12-14T01:37:34;9.57;;;9.15;;
2544;SDS011;36212;48.838;9.142;2023-12-14T01:40:07;9.60;;;9.10;;
2544;SDS011;36212;48.838;9.142;2023-12-14T01:42:40;9.15;;;8.85;;
2544;SDS011;36212;48.838;9.142;2023-12-14T01:45:13;9.35;;;8.93;;
2544;SDS011;36212;48.838;9.142;2023-12-14T01:47:48;8.60;;;8.20;;
2544;SDS011;36212;48.838;9.142;2023-12-14T01:50:20;10.18;;;9.70;;
2544;SDS011;36212;48.838;9.142;2023-12-14T01:52:52;9.38;;;8.95;;
2544;SDS011;36212;48.838;9.142;2023-12-14T01:55:25;11.05;;;10.55;;
2544;SDS011;36212;48.838;9.142;2023-12-14T01:57:59;10.65;;;10.25;;
2544;SDS011;36212;48.838;9.142;2023-12-14T02:04:01;10.63;;;10.23;;
2544;SDS011;36212;48.838;9.142;2023-12-14T02:06:34;10.50;;;9.82;;
2544;SDS011;36212;48.838;9.142;2023-12-14T02:09:07;8.98;;;8.68;;
2544;SDS011;36212;48.838;9.142;2023-12-14T02:11:40;9.30;;;9.00;;
2544;SDS011;36212;48.838;9.142;2023-12-14T02:14:12;9.98;;;9.68;;
2544;SDS011;36212;48.838;9.142;2023-12-14T02:16:45;9.15;;;8.68;;
2544;SDS011;36212;48.838;9.142;2023-12-14T02:19:17;9.45;;;9.05;;
2544;SDS011;36212;48.838;9.142;2023-12-14T02:21:50;9.65;;;9.32;;
2544;SDS011;36212;48.838;9.142;2023-12-14T02:24:22;9.65;;;9.25;;
2544;SDS011;36212;48.838;9.142;2023-12-14T02:26:54;9.15;;;8.85;;
2544;SDS011;36212;48.838;9.142;2023-12-14T02:29:34;8.82;;;8.43;;
2544;SDS011;36212;48.838;9.142;2023-12-14T02:32:07;9.07;;;8.82;;
2544;SDS011;36212;48.838;9.142;2023-12-14T02:34:39;9.18;;;8.88;;
2544;SDS011;36212;48.838;9.142;2023-12-14T02:37:11;8.60;;;8.25;;
2544;SDS011;36212;48.838;9.142;2023-12-14T02:39:44;9.48;;;9.07;;
2544;SDS011;36212;48.838;9.142;2023-12-14T02:42:18;9.60;;;9.20;;
2544;SDS011;36212;48.838;9.142;2023-12-14T02:44:51;9.13;;;8.60;;
2544;SDS011;36212;48.838;9.142;2023-12-14T02:47:26;9.70;;;9.30;;
2544;SDS011;36212;48.838;9.142;2023-12-14T02:49:59;10.27;;;9.80;;
2544;SDS011;36212;48.838;9.142;2023-12-14T02:52:31;9.65;;;9.15;;
2544;SDS011;36212;48.838;9.142;2023-12-14T02:55:04;9.88;;;9.48;;
2544;SDS011;36212;48.838;9.142;2023-12-14T02:57:37;9.43;;;8.93;;
2544;SDS011;36212;48.838;9.142;2023-12-14T03:00:09;10.45;;;10.05;;
2544;SDS011;36212;48.838;9.142;2023-12-14T03:02:43;11.35;;;10.85;;
2544;SDS011;36212;48.838;9.142;2023-12-14T03:05:16;11.30;;;10.90;;
2544;SDS011;36212;48.838;9.142;2023-12-14T03:07:48;12.30;;;11.85;;
2544;SDS011;36212;48.838;9.142;2023-12-14T03:10:20;11.10;;;10.70;;
2544;SDS011;36212;48.838;9.142;2023-12-14T03:12:53;11.45;;;11.05;;
2544;SDS011;36212;48.838;9.142;2023-12-14T03:15:25;10.48;;;10.07;;
2544;SDS011;36212;48.838;9.142;2023-12-14T03:17:58;12.45;;;11.68;;
2544;SDS011;36212;48.838;9.142;2023-12-14T03:20:30;13.05;;;12.45;;
2544;SDS011;36212;48.838;9.142;2023-12-14T03:23:02;12.48;;;11.80;;
2544;SDS011;36212;48.838;9.142;2023-12-14T03:25:34;11.02;;;10.63;;
2544;SDS011;36212;48.838;9.142;2023-12-14T03:28:07;12.10;;;11.60;;
2544;SDS011;36212;48.838;9.142;2023-12-14T03:30:40;10.82;;;10.32;;
2544;SDS011;36212;48.838;9.142;2023-12-14T03:33:12;11.70;;;11.30;;
2544;SDS011;36212;48.838;9.142;2023-12-14T03:35:44;9.77;;;9.38;;
2544;SDS011;36212;48.838;9.142;2023-12-14T03:38:18;9.48;;;9.07;;
2544;SDS011;36212;48.838;9.142;2023-12-14T03:40:51;10.57;;;10.13;;
2544;SDS011;36212;48.838;9.142;2023-12-14T03:43:23;10.85;;;10.40;;
2544;SDS011;36212;48.838;9.142;2023-12-14T03:45:55;10.70;;;10.30;;
2544;SDS011;36212;48.838;9.142;2023-12-14T03:48:27;10.55;;;10.05;;
2544;SDS011;36212;48.838;9.142;2023-12-14T03:51:03;9.70;;;9.40;;
2544;SDS011;36212;48.838;9.142;2023-12-14T03:53:36;9.52;;;9.13;;
2544;SDS011;36212;48.838;9.142;2023-12-14T03:56:08;8.88;;;8.57;;
2544;SDS011;36212;48.838;9.142;2023-12-14T03:58:41;9.60;;;9.30;;
2544;SDS011;36212;48.838;9.142;2023-12-14T04:01:17;9.65;;;9.25;;
2544;SDS011;36212;48.838;9.142;2023-12-14T04:03:51;9.25;;;8.95;;
2544;SDS011;36212;48.838;9.142;2023-12-14T04:06:23;10.68;;;10.13;;
2544;SDS011;36212;48.838;9.142;2023-12-14T04:08:55;11.00;;;10.60;;
2544;SDS011;36212;48.838;9.142;2023-12-14T04:11:27;10.30;;;10.00;;
2544;SDS011;36212;48.838;9.142;2023-12-14T04:13:59;8.40;;;8.10;;
2544;SDS011;36212;48.838;9.142;2023-12-14T04:16:32;10.25;;;9.85;;
2544;SDS011;36212;48.838;9.142;2023-12-14T04:19:04;10.10;;;9.70;;
2544;SDS011;36212;48.838;9.142;2023-12-14T04:21:42;9.63;;;9.23;;
2544;SDS011;36212;48.838;9.142;2023-12-14T04:24:14;9.60;;;9.10;;
2544;SDS011;36212;48.838;9.142;2023-12-14T04:26:46;10.43;;;10.02;;
2544;SDS011;36212;48.838;9.142;2023-12-14T04:29:18;9.65;;;9.15;;
2544;SDS011;36212;48.838;9.142;2023-12-14T04:31:50;9.32;;;9.02;;
2544;SDS011;36212;48.838;9.142;2023-12-14T04:34:29;9.90;;;9.50;;
2544;SDS011;36212;48.838;9.142;2023-12-14T04:37:02;12.07;;;11.35;;
2544;SDS011;36212;48.838;9.142;2023-12-14T04:39:37;11.45;;;10.75;;
2544;SDS011;36212;48.838;9.142;2023-12-14T04:42:13;12.43;;;11.93;;
2544;SDS011;36212;48.838;9.142;2023-12-14T04:44:47;11.93;;;10.82;;
2544;SDS011;36212;48.838;9.142;2023-12-14T04:47:21;11.80;;;11.27;;
2544;SDS011;36212;48.838;9.142;2023-12-14T04:49:56;11.20;;;10.75;;
2544;SDS011;36212;48.838;9.142;2023-12-14T04:52:33;10.98;;;10.48;;
2544;SDS011;36212;48.838;9.142;2023-12-14T04:55:11;10.82;;;10.23;;
2544;SDS011;36212;48.838;9.142;2023-12-14T04:57:46;11.15;;;10.75;;
2544;SDS011;36212;48.838;9.142;2023-12-14T05:00:22;11.55;;;10.88;;
2544;SDS011;36212;48.838;9.142;2023-12-14T05:02:59;10.85;;;10.45;;
2544;SDS011;36212;48.838;9.142;2023-12-14T05:05:37;11.57;;;11.13;;
2544;SDS011;36212;48.838;9.142;2023-12-14T05:08:10;11.27;;;10.88;;
2544;SDS011;36212;48.838;9.142;2023-12-14T05:10:45;10.38;;;9.98;;
2544;SDS011;36212;48.838;9.142;2023-12-14T05:13:19;11.75;;;11.25;;
2544;SDS011;36212;48.838;9.142;2023-12-14T05:15:55;13.05;;;12.45;;
2544;SDS011;36212;48.838;9.142;2023-12-14T05:18:31;11.70;;;11.30;;
2544;SDS011;36212;48.838;9.142;2023-12-14T05:24:30;12.63;;;12.13;;
2544;SDS011;36212;48.838;9.142;2023-12-14T05:27:09;13.73;;;13.15;;
2544;SDS011;36212;48.838;9.142;2023-12-14T05:29:45;11.75;;;11.25;;
2544;SDS011;36212;48.838;9.142;2023-12-14T05:32:20;13.50;;;12.90;;
2544;SDS011;36212;48.838;9.142;2023-12-14T05:35:29;12.80;;;12.20;;
2544;SDS011;36212;48.838;9.142;2023-12-14T05:38:03;13.55;;;12.82;;
2544;SDS011;36212;48.838;9.142;2023-12-14T05:40:40;12.70;;;12.10;;
2544;SDS011;36212;48.838;9.142;2023-12-14T05:44:31;14.18;;;13.57;;
2544;SDS011;36212;48.838;9.142;2023-12-14T05:47:04;14.90;;;14.05;;
2544;SDS011;36212;48.838;9.142;2023-12-14T05:49:43;15.20;;;14.50;;
2544;SDS011;36212;48.838;9.142;2023-12-14T05:52:17;15.57;;;14.73;;
2544;SDS011;36212;48.838;9.142;2023-12-14T05:54:53;15.32;;;14.40;;
2544;SDS011;36212;48.838;9.142;2023-12-14T05:57:29;14.95;;;14.25;;
2544;SDS011;36212;48.838;9.142;2023-12-14T06:00:17;16.45;;;15.75;;
2544;SDS011;36212;48.838;9.142;2023-12-14T06:02:54;16.20;;;15.50;;
2544;SDS011;36212;48.838;9.142;2023-12-14T06:05:26;16.38;;;15.27;;
2544;SDS011;36212;48.838;9.142;2023-12-14T06:11:22;18.02;;;17.23;;
2544;SDS011;36212;48.838;9.142;2023-12-14T06:13:57;18.92;;;17.98;;
2544;SDS011;36212;48.838;9.142;2023-12-14T06:16:31;19.13;;;18.13;;
2544;SDS011;36212;48.838;9.142;2023-12-14T06:19:05;19.20;;;18.10;;
2544;SDS011;36212;48.838;9.142;2023-12-14T06:21:38;20.23;;;19.10;;
2544;SDS011;36212;48.838;9.142;2023-12-14T06:24:12;19.85;;;19.00;;
2544;SDS011;36212;48.838;9.142;2023-12-14T06:26:45;20.55;;;19.55;;
2544;SDS011;36212;48.838;9.142;2023-12-14T06:29:19;19.63;;;18.67;;
2544;SDS011;36212;48.838;9.142;2023-12-14T06:31:52;22.35;;;21.25;;
2544;SDS011;36212;48.838;9.142;2023-12-14T06:34:25;21.13;;;20.20;;
2544;SDS011;36212;48.838;9.142;2023-12-14T06:36:57;21.00;;;19.95;;
2544;SDS011;36212;48.838;9.142;2023-12-14T06:39:33;20.65;;;19.70;;
2544;SDS011;36212;48.838;9.142;2023-12-14T06:42:06;20.35;;;19.42;;
2544;SDS011;36212;48.838;9.142;2023-12-14T06:44:39;20.50;;;19.48;;
2544;SDS011;36212;48.838;9.142;2023-12-14T06:47:11;20.65;;;19.42;;
2544;SDS011;36212;48.838;9.142;2023-12-14T06:49:45;20.23;;;19.27;;
2544;SDS011;36212;48.838;9.142;2023-12-14T06:52:18;20.90;;;19.80;;
2544;SDS011;36212;48.838;9.142;2023-12-14T06:54:51;19.25;;;18.35;;
2544;SDS011;36212;48.838;9.142;2023-12-14T06:57:24;21.13;;;20.15;;
2544;SDS011;36212;48.838;9.142;2023-12-14T06:59:59;20.83;;;19.77;;
2544;SDS011;36212;48.838;9.142;2023-12-14T07:02:33;21.58;;;20.27;;
2544;SDS011;36212;48.838;9.142;2023-12-14T07:05:07;21.55;;;20.45;;
2544;SDS011;36212;48.838;9.142;2023-12-14T07:07:42;21.92;;;20.83;;
2544;SDS011;36212;48.838;9.142;2023-12-14T07:10:15;22.48;;;21.27;;
2544;SDS011;36212;48.838;9.142;2023-12-14T07:12:49;22.40;;;21.20;;
2544;SDS011;36212;48.838;9.142;2023-12-14T07:15:25;23.73;;;22.38;;
2544;SDS011;36212;48.838;9.142;2023-12-14T07:17:58;21.58;;;20.58;;
2544;SDS011;36212;48.838;9.142;2023-12-14T07:20:31;23.60;;;22.13;;
2544;SDS011;36212;48.838;9.142;2023-12-14T07:23:05;22.05;;;20.95;;
2544;SDS011;36212;48.838;9.142;2023-12-14T07:25:38;24.30;;;23.05;;
2544;SDS011;36212;48.838;9.142;2023-12-14T07:28:11;25.35;;;24.15;;
2544;SDS011;36212;48.838;9.142;2023-12-14T07:30:45;26.52;;;24.90;;
2544;SDS011;36212;48.838;9.142;2023-12-14T07:33:20;26.50;;;25.10;;
2544;SDS011;36212;48.838;9.142;2023-12-14T07:35:54;27.25;;;25.85;;
2544;SDS011;36212;48.838;9.142;2023-12-14T07:38:27;26.70;;;25.25;;
2544;SDS011;36212;48.838;9.142;2023-12-14T07:40:59;26.60;;;24.85;;
2544;SDS011;36212;48.838;9.142;2023-12-14T07:43:33;25.60;;;24.00;;
2544;SDS011;36212;48.838;9.142;2023-12-14T07:46:06;24.88;;;23.60;;
2544;SDS011;36212;48.838;9.142;2023-12-14T07:48:38;24.15;;;22.95;;
2544;SDS011;36212;48.838;9.142;2023-12-14T07:51:11;26.60;;;25.10;;
2544;SDS011;36212;48.838;9.142;2023-12-14T07:53:45;27.58;;;25.95;;
2544;SDS011;36212;48.838;9.142;2023-12-14T07:56:20;24.38;;;22.80;;
2544;SDS011;36212;48.838;9.142;2023-12-14T07:58:58;26.02;;;24.63;;
2544;SDS011;36212;48.838;9.142;2023-12-14T08:01:37;25.75;;;24.35;;
2544;SDS011;36212;48.838;9.142;2023-12-14T08:04:11;26.88;;;25.50;;
2544;SDS011;36212;48.838;9.142;2023-12-14T08:06:45;27.55;;;25.95;;
2544;SDS011;36212;48.838;9.142;2023-12-14T08:09:17;26.40;;;24.95;;
2544;SDS011;36212;48.838;9.142;2023-12-14T08:11:50;24.08;;;22.75;;
2544;SDS011;36212;48.838;9.142;2023-12-14T08:14:27;24.60;;;23.30;;
2544;SDS011;36212;48.838;9.142;2023-12-14T08:17:03;24.70;;;22.98;;
2544;SDS011;36212;48.838;9.142;2023-12-14T08:19:37;24.23;;;22.92;;
2544;SDS011;36212;48.838;9.142;2023-12-14T08:22:11;24.80;;;23.48;;
2544;SDS011;36212;48.838;9.142;2023-12-14T08:24:49;23.83;;;22.48;;
2544;SDS011;36212;48.838;9.142;2023-12-14T08:27:21;22.98;;;21.60;;
2544;SDS011;36212;48.838;9.142;2023-12-14T08:29:55;22.48;;;21.17;;
2544;SDS011;36212;48.838;9.142;2023-12-14T08:32:28;22.38;;;20.88;;
2544;SDS011;36212;48.838;9.142;2023-12-14T08:35:02;22.85;;;21.25;;
2544;SDS011;36212;48.838;9.142;2023-12-14T08:37:39;23.10;;;21.63;;
2544;SDS011;36212;48.838;9.142;2023-12-14T08:40:24;22.65;;;21.25;;
2544;SDS011;36212;48.838;9.142;2023-12-14T08:42:59;22.15;;;20.77;;
2544;SDS011;36212;48.838;9.142;2023-12-14T08:45:33;19.42;;;18.23;;
2544;SDS011;36212;48.838;9.142;2023-12-14T08:48:07;21.15;;;19.55;;
2544;SDS011;36212;48.838;9.142;2023-12-14T08:50:43;22.60;;;20.67;;
2544;SDS011;36212;48.838;9.142;2023-12-14T08:53:16;23.65;;;22.15;;
2544;SDS011;36212;48.838;9.142;2023-12-14T08:55:51;23.15;;;21.55;;
2544;SDS011;36212;48.838;9.142;2023-12-14T08:58:24;26.00;;;24.30;;
2544;SDS011;36212;48.838;9.142;2023-12-14T09:00:57;24.10;;;22.50;;
2544;SDS011;36212;48.838;9.142;2023-12-14T09:03:33;22.92;;;21.42;;
2544;SDS011;36212;48.838;9.142;2023-12-14T09:06:07;24.45;;;22.73;;
2544;SDS011;36212;48.838;9.142;2023-12-14T09:08:40;21.58;;;20.17;;
2544;SDS011;36212;48.838;9.142;2023-12-14T09:11:14;22.98;;;21.45;;
2544;SDS011;36212;48.838;9.142;2023-12-14T09:13:49;22.60;;;20.27;;
2544;SDS011;36212;48.838;9.142;2023-12-14T09:16:24;24.42;;;22.65;;
2544;SDS011;36212;48.838;9.142;2023-12-14T09:18:58;22.05;;;20.65;;
2544;SDS011;36212;48.838;9.142;2023-12-14T09:21:32;23.52;;;21.73;;
2544;SDS011;36212;48.838;9.142;2023-12-14T09:24:20;24.80;;;23.05;;
2544;SDS011;36212;48.838;9.142;2023-12-14T09:26:54;23.98;;;22.17;;
2544;SDS011;36212;48.838;9.142;2023-12-14T09:29:27;22.63;;;21.20;;
2544;SDS011;36212;48.838;9.142;2023-12-14T09:32:03;22.65;;;21.05;;
2544;SDS011;36212;48.838;9.142;2023-12-14T09:34:41;24.55;;;22.75;;
2544;SDS011;36212;48.838;9.142;2023-12-14T09:37:15;22.52;;;20.92;;
2544;SDS011;36212;48.838;9.142;2023-12-14T09:39:48;23.45;;;21.65;;
2544;SDS011;36212;48.838;9.142;2023-12-14T09:42:21;24.30;;;22.38;;
2544;SDS011;36212;48.838;9.142;2023-12-14T09:44:54;23.08;;;21.17;;
2544;SDS011;36212;48.838;9.142;2023-12-14T09:47:31;22.02;;;20.35;;
2544;SDS011;36212;48.838;9.142;2023-12-14T09:50:06;21.40;;;19.48;;
2544;SDS011;36212;48.838;9.142;2023-12-14T09:52:45;21.83;;;19.90;;
2544;SDS011;36212;48.838;9.142;2023-12-14T09:55:21;19.80;;;18.20;;
2544;SDS011;36212;48.838;9.142;2023-12-14T09:57:54;19.92;;;18.33;;
2544;SDS011;36212;48.838;9.142;2023-12-14T10:00:33;19.95;;;18.35;;
2544;SDS011;36212;48.838;9.142;2023-12-14T10:03:21;21.10;;;19.23;;
2544;SDS011;36212;48.838;9.142;2023-12-14T10:05:59;18.77;;;17.40;;
2544;SDS011;36212;48.838;9.142;2023-12-14T10:08:34;20.00;;;18.48;;
2544;SDS011;36212;48.838;9.142;2023-12-14T10:11:14;18.00;;;16.63;;
2544;SDS011;36212;48.838;9.142;2023-12-14T10:13:48;19.50;;;18.13;;
2544;SDS011;36212;48.838;9.142;2023-12-14T10:16:31;18.85;;;17.15;;
2544;SDS011;36212;48.838;9.142;2023-12-14T10:19:06;19.23;;;17.15;;
2544;SDS011;36212;48.838;9.142;2023-12-14T10:21:40;19.48;;;17.92;;
2544;SDS011;36212;48.838;9.142;2023-12-14T10:24:13;16.10;;;14.77;;
2544;SDS011;36212;48.838;9.142;2023-12-14T10:26:52;14.82;;;13.52;;
2544;SDS011;36212;48.838;9.142;2023-12-14T10:29:26;14.60;;;13.40;;
2544;SDS011;36212;48.838;9.142;2023-12-14T10:32:06;14.57;;;13.38;;
2544;SDS011;36212;48.838;9.142;2023-12-14T10:34:42;14.05;;;12.75;;
2544;SDS011;36212;48.838;9.142;2023-12-14T10:37:15;14.77;;;13.55;;
2544;SDS011;36212;48.838;9.142;2023-12-14T10:39:51;14.27;;;13.07;;
2544;SDS011;36212;48.838;9.142;2023-12-14T10:42:29;14.45;;;13.35;;
2544;SDS011;36212;48.838;9.142;2023-12-14T10:45:05;13.55;;;12.35;;
2544;SDS011;36212;48.838;9.142;2023-12-14T10:47:54;14.10;;;13.00;;
2544;SDS011;36212;48.838;9.142;2023-12-14T10:50:30;13.73;;;12.63;;
2544;SDS011;36212;48.838;9.142;2023-12-14T10:53:05;14.70;;;13.32;;
2544;SDS011;36212;48.838;9.142;2023-12-14T10:55:42;12.70;;;11.55;;
2544;SDS011;36212;48.838;9.142;2023-12-14T10:58:17;12.15;;;11.35;;
2544;SDS011;36212;48.838;9.142;2023-12-14T11:00:59;13.32;;;12.38;;
2544;SDS011;36212;48.838;9.142;2023-12-14T11:03:37;11.00;;;10.15;;
2544;SDS011;36212;48.838;9.142;2023-12-14T11:09:07;11.13;;;10.43;;
2544;SDS011;36212;48.838;9.142;2023-12-14T11:14:30;11.80;;;10.75;;
2544;SDS011;36212;48.838;9.142;2023-12-14T11:17:06;10.50;;;9.70;;
2544;SDS011;36212;48.838;9.142;2023-12-14T11:19:44;11.75;;;10.65;;
2544;SDS011;36212;48.838;9.142;2023-12-14T11:22:24;10.63;;;9.80;;
2544;SDS011;36212;48.838;9.142;2023-12-14T11:25:01;10.73;;;9.95;;
2544;SDS011;36212;48.838;9.142;2023-12-14T11:27:35;11.63;;;10.57;;
2544;SDS011;36212;48.838;9.142;2023-12-14T11:30:16;12.27;;;11.25;;
2544;SDS011;36212;48.838;9.142;2023-12-14T11:32:49;10.82;;;9.93;;
2544;SDS011;36212;48.838;9.142;2023-12-14T11:35:23;11.20;;;10.30;;
2544;SDS011;36212;48.838;9.142;2023-12-14T11:37:56;11.75;;;10.77;;
2544;SDS011;36212;48.838;9.142;2023-12-14T11:40:32;12.20;;;11.00;;
2544;SDS011;36212;48.838;9.142;2023-12-14T11:43:06;11.73;;;10.82;;
2544;SDS011;36212;48.838;9.142;2023-12-14T11:45:40;13.10;;;10.88;;
2544;SDS011;36212;48.838;9.142;2023-12-14T11:48:13;11.95;;;10.95;;
2544;SDS011;36212;48.838;9.142;2023-12-14T11:50:46;11.20;;;10.40;;
2544;SDS011;36212;48.838;9.142;2023-12-14T11:53:19;9.82;;;8.93;;
2544;SDS011;36212;48.838;9.142;2023-12-14T11:55:52;7.72;;;7.13;;
2544;SDS011;36212;48.838;9.142;2023-12-14T11:58:25;6.38;;;5.95;;
2544;SDS011;36212;48.838;9.142;2023-12-14T12:01:09;6.15;;;5.75;;
2544;SDS011;36212;48.838;9.142;2023-12-14T12:03:55;5.50;;;5.20;;
2544;SDS011;36212;48.838;9.142;2023-12-14T12:06:38;5.95;;;5.55;;
2544;SDS011;36212;48.838;9.142;2023-12-14T12:09:11;5.85;;;5.32;;
2544;SDS011;36212;48.838;9.142;2023-12-14T12:12:07;5.72;;;5.30;;
2544;SDS011;36212;48.838;9.142;2023-12-14T12:14:44;5.90;;;5.38;;
2544;SDS011;36212;48.838;9.142;2023-12-14T12:17:16;5.20;;;4.90;;
2544;SDS011;36212;48.838;9.142;2023-12-14T12:19:51;5.00;;;4.70;;
2544;SDS011;36212;48.838;9.142;2023-12-14T12:22:24;6.32;;;5.72;;
2544;SDS011;36212;48.838;9.142;2023-12-14T12:24:56;5.75;;;5.25;;
2544;SDS011;36212;48.838;9.142;2023-12-14T12:27:46;5.63;;;5.32;;
2544;SDS011;36212;48.838;9.142;2023-12-14T12:30:19;6.57;;;6.18;;
2544;SDS011;36212;48.838;9.142;2023-12-14T12:32:53;6.35;;;6.00;;
2544;SDS011;36212;48.838;9.142;2023-12-14T12:35:28;6.68;;;6.28;;
2544;SDS011;36212;48.838;9.142;2023-12-14T12:38:04;6.90;;;6.38;;
2544;SDS011;36212;48.838;9.142;2023-12-14T12:40:37;7.10;;;6.60;;
2544;SDS011;36212;48.838;9.142;2023-12-14T12:43:10;6.78;;;6.28;;
2544;SDS011;36212;48.838;9.142;2023-12-14T12:45:45;7.50;;;7.00;;
2544;SDS011;36212;48.838;9.142;2023-12-14T12:48:18;7.85;;;7.25;;
2544;SDS011;36212;48.838;9.142;2023-12-14T12:50:53;8.40;;;7.70;;
2544;SDS011;36212;48.838;9.142;2023-12-14T12:53:30;8.52;;;7.93;;
2544;SDS011;36212;48.838;9.142;2023-12-14T12:56:06;7.25;;;6.65;;
2544;SDS011;36212;48.838;9.142;2023-12-14T12:58:40;7.53;;;6.82;;
2544;SDS011;36212;48.838;9.142;2023-12-14T13:01:14;7.63;;;7.10;;
2544;SDS011;36212;48.838;9.142;2023-12-14T13:03:54;6.22;;;5.70;;
2544;SDS011;36212;48.838;9.142;2023-12-14T13:06:36;5.88;;;5.57;;
2544;SDS011;36212;48.838;9.142;2023-12-14T13:09:15;6.18;;;5.78;;
2544;SDS011;36212;48.838;9.142;2023-12-14T13:11:56;6.30;;;5.80;;
2544;SDS011;36212;48.838;9.142;2023-12-14T13:14:31;5.95;;;5.65;;
2544;SDS011;36212;48.838;9.142;2023-12-14T13:17:12;5.30;;;5.07;;
2544;SDS011;36212;48.838;9.142;2023-12-14T13:19:50;5.90;;;5.60;;
2544;SDS011;36212;48.838;9.142;2023-12-14T13:22:29;5.47;;;5.18;;
2544;SDS011;36212;48.838;9.142;2023-12-14T13:25:11;6.50;;;5.82;;
2544;SDS011;36212;48.838;9.142;2023-12-14T13:28:05;6.07;;;5.78;;
2544;SDS011;36212;48.838;9.142;2023-12-14T13:30:54;6.35;;;6.00;;
2544;SDS011;36212;48.838;9.142;2023-12-14T13:33:32;6.43;;;6.07;;
2544;SDS011;36212;48.838;9.142;2023-12-14T13:36:21;6.45;;;6.15;;
2544;SDS011;36212;48.838;9.142;2023-12-14T13:39:05;7.47;;;6.85;;
2544;SDS011;36212;48.838;9.142;2023-12-14T13:41:55;7.45;;;7.05;;
2544;SDS011;36212;48.838;9.142;2023-12-14T13:44:34;6.32;;;6.03;;
2544;SDS011;36212;48.838;9.142;2023-12-14T13:47:13;7.40;;;6.90;;
2544;SDS011;36212;48.838;9.142;2023-12-14T13:49:50;8.32;;;7.82;;
2544;SDS011;36212;48.838;9.142;2023-12-14T13:57:20;10.02;;;9.07;;
2544;SDS011;36212;48.838;9.142;2023-12-14T14:03:49;10.93;;;10.20;;
2544;SDS011;36212;48.838;9.142;2023-12-14T14:06:26;11.30;;;10.50;;
2544;SDS011;36212;48.838;9.142;2023-12-14T14:09:18;12.32;;;11.38;;
2544;SDS011;36212;48.838;9.142;2023-12-14T14:11:54;13.10;;;12.13;;
2544;SDS011;36212;48.838;9.142;2023-12-14T14:14:29;12.90;;;12.00;;
2544;SDS011;36212;48.838;9.142;2023-12-14T14:17:10;14.13;;;12.98;;
2544;SDS011;36212;48.838;9.142;2023-12-14T14:19:46;16.17;;;14.77;;
2544;SDS011;36212;48.838;9.142;2023-12-14T14:22:25;19.92;;;18.13;;
2544;SDS011;36212;48.838;9.142;2023-12-14T14:25:12;18.73;;;16.98;;
2544;SDS011;36212;48.838;9.142;2023-12-14T14:27:58;16.40;;;14.90;;
2544;SDS011;36212;48.838;9.142;2023-12-14T14:30:35;16.25;;;14.98;;
2544;SDS011;36212;48.838;9.142;2023-12-14T14:33:11;15.27;;;14.05;;
2544;SDS011;36212;48.838;9.142;2023-12-14T14:35:48;14.68;;;13.50;;
2544;SDS011;36212;48.838;9.142;2023-12-14T14:38:23;14.70;;;13.70;;
2544;SDS011;36212;48.838;9.142;2023-12-14T14:41:00;16.40;;;15.07;;
2544;SDS011;36212;48.838;9.142;2023-12-14T14:43:41;17.27;;;15.77;;
2544;SDS011;36212;48.838;9.142;2023-12-14T14:46:15;18.08;;;16.45;;
2544;SDS011;36212;48.838;9.142;2023-12-14T14:48:51;15.60;;;14.27;;
2544;SDS011;36212;48.838;9.142;2023-12-14T14:51:27;17.40;;;15.82;;
2544;SDS011;36212;48.838;9.142;2023-12-14T14:54:07;16.30;;;15.00;;
2544;SDS011;36212;48.838;9.142;2023-12-14T14:56:44;17.13;;;15.52;;
2544;SDS011;36212;48.838;9.142;2023-12-14T14:59:46;17.13;;;15.73;;
2544;SDS011;36212;48.838;9.142;2023-12-14T15:02:36;19.00;;;17.50;;
2544;SDS011;36212;48.838;9.142;2023-12-14T15:05:16;17.73;;;16.42;;
2544;SDS011;36212;48.838;9.142;2023-12-14T15:07:54;19.80;;;18.20;;
2544;SDS011;36212;48.838;9.142;2023-12-14T15:10:33;20.30;;;18.50;;
2544;SDS011;36212;48.838;9.142;2023-12-14T15:13:06;18.67;;;17.08;;
2544;SDS011;36212;48.838;9.142;2023-12-14T15:15:38;20.80;;;19.10;;
2544;SDS011;36212;48.838;9.142;2023-12-14T15:18:11;20.90;;;19.00;;
2544;SDS011;36212;48.838;9.142;2023-12-14T15:20:45;20.35;;;18.55;;
2544;SDS011;36212;48.838;9.142;2023-12-14T15:23:19;20.00;;;18.33;;
2544;SDS011;36212;48.838;9.142;2023-12-14T15:25:52;20.90;;;19.17;;
2544;SDS011;36212;48.838;9.142;2023-12-14T15:28:24;20.00;;;18.30;;
2544;SDS011;36212;48.838;9.142;2023-12-14T15:30:59;23.75;;;21.48;;
2544;SDS011;36212;48.838;9.142;2023-12-14T15:33:32;21.55;;;19.73;;
2544;SDS011;36212;48.838;9.142;2023-12-14T15:36:05;23.13;;;21.05;;
2544;SDS011;36212;48.838;9.142;2023-12-14T15:38:38;24.40;;;22.23;;
2544;SDS011;36212;48.838;9.142;2023-12-14T15:41:16;21.95;;;20.17;;
2544;SDS011;36212;48.838;9.142;2023-12-14T15:43:49;25.92;;;23.83;;
2544;SDS011;36212;48.838;9.142;2023-12-14T15:46:22;23.60;;;21.60;;
2544;SDS011;36212;48.838;9.142;2023-12-14T15:48:55;22.55;;;20.55;;
2544;SDS011;36212;48.838;9.142;2023-12-14T15:51:28;22.58;;;20.70;;
2544;SDS011;36212;48.838;9.142;2023-12-14T15:54:04;21.85;;;20.10;;